Time;durP1;ratioP1;P1;durP2;ratioP2;P2;SDS_P1;SDS_P2;PMS_P1;PMS_P2;Temp;Humidity;BMP_temperature;BMP_pressure;BME280_temperature;BME280_humidity;BME280_pressure;Samples;Min_cycle;Max_cycle;Signal;HPM_P1;HPM_P2
2022/01/22 00:01:54;;;;;;;3.53;0.57;;;24.50;99.90;;;;;;5064285;28;20159;-77
2022/01/22 00:04:21;;;;;;;3.80;0.93;;;24.70;99.90;;;;;;5061197;28;20021;-76
2022/01/22 00:06:51;;;;;;;8.80;0.75;;;25.10;99.90;;;;;;5067148;28;20034;-76
2022/01/22 00:09:24;;;;;;;3.70;0.52;;;25.50;99.90;;;;;;5054120;28;20056;-76
2022/01/22 00:11:53;;;;;;;3.97;1.10;;;26.20;99.90;;;;;;5060814;28;20035;-74
2022/01/22 00:14:24;;;;;;;1.10;0.20;;;26.80;99.90;;;;;;5050754;28;20036;-76
2022/01/22 00:17:00;;;;;;;3.85;0.50;;;26.80;99.90;;;;;;5051603;28;20086;-77
2022/01/22 00:19:28;;;;;;;2.80;0.40;;;26.70;99.90;;;;;;5050058;28;20025;-75
2022/01/22 00:21:58;;;;;;;2.10;0.25;;;26.50;99.90;;;;;;5049907;28;20031;-75
2022/01/22 00:24:25;;;;;;;2.55;0.57;;;26.20;99.20;;;;;;5050258;28;20106;-76
2022/01/22 00:26:52;;;;;;;3.90;1.08;;;25.70;99.60;;;;;;5060702;28;20016;-76
2022/01/22 00:29:21;;;;;;;6.38;0.98;;;25.30;99.90;;;;;;5067223;28;20025;-77
2022/01/22 00:31:48;;;;;;;5.43;0.35;;;25.00;99.90;;;;;;5061383;28;20052;-77
2022/01/22 00:34:15;;;;;;;3.88;0.65;;;24.70;99.90;;;;;;5052401;28;20028;-77
2022/01/22 00:36:43;;;;;;;4.55;0.82;;;24.60;99.90;;;;;;5052869;28;20021;-76
2022/01/22 00:39:10;;;;;;;2.72;0.22;;;24.50;99.90;;;;;;5050587;28;20044;-76
2022/01/22 00:41:39;;;;;;;1.10;0.22;;;24.50;99.90;;;;;;5048455;28;20040;-75
2022/01/22 00:44:07;;;;;;;3.75;0.80;;;24.60;99.90;;;;;;5055147;28;20036;-77
2022/01/22 00:46:34;;;;;;;2.13;0.63;;;25.00;99.90;;;;;;5052598;28;21521;-76
2022/01/22 00:49:02;;;;;;;6.85;0.77;;;25.50;99.80;;;;;;5054125;28;20044;-77
2022/01/22 00:51:30;;;;;;;3.92;0.45;;;25.80;98.80;;;;;;5052460;28;20032;-76
2022/01/22 00:53:57;;;;;;;1.45;0.30;;;25.80;98.40;;;;;;5052267;28;20063;-79
2022/01/22 00:56:24;;;;;;;2.30;0.35;;;25.80;98.30;;;;;;5049559;28;20554;-76
2022/01/22 00:58:52;;;;;;;2.47;0.20;;;25.80;98.90;;;;;;5051802;28;20091;-78
2022/01/22 01:01:19;;;;;;;3.25;0.30;;;26.00;98.10;;;;;;5056561;28;20023;-76
2022/01/22 01:03:47;;;;;;;1.83;0.35;;;26.50;97.80;;;;;;5061231;28;20037;-76
2022/01/22 01:06:14;;;;;;;1.85;0.30;;;27.00;96.60;;;;;;5058975;28;20471;-77
2022/01/22 01:08:43;;;;;;;2.42;0.68;;;27.00;95.50;;;;;;5055802;28;20036;-76
2022/01/22 01:11:13;;;;;;;1.45;0.30;;;26.60;95.80;;;;;;5058548;28;20382;-76
2022/01/22 01:13:45;;;;;;;3.85;0.50;;;26.50;95.90;;;;;;5057725;28;20593;-74
2022/01/22 01:16:22;;;;;;;1.60;0.38;;;27.10;96.40;;;;;;5063194;28;20050;-78
2022/01/22 01:32:52;;;;;;;1.77;0.20;;;27.90;92.10;;;;;;5052680;28;20031;-77
2022/01/22 01:35:20;;;;;;;3.25;0.20;;;28.30;92.60;;;;;;5054111;28;21374;-77
2022/01/22 01:37:49;;;;;;;2.40;0.38;;;28.60;91.90;;;;;;5055348;28;20107;-75
2022/01/22 01:40:19;;;;;;;4.15;0.47;;;28.90;91.50;;;;;;5056596;28;20049;-76
2022/01/22 01:42:53;;;;;;;2.38;0.60;;;29.00;91.40;;;;;;5063597;28;20063;-75
2022/01/22 01:45:20;;;;;;;3.45;0.47;;;29.00;91.60;;;;;;5059746;28;20122;-75
2022/01/22 01:47:58;;;;;;;1.92;0.25;;;29.20;91.90;;;;;;5055520;28;20031;-74
2022/01/22 01:50:26;;;;;;;2.67;0.50;;;29.20;90.60;;;;;;5056673;28;20037;-75
2022/01/22 01:53:16;;;;;;;1.08;0.15;;;29.40;91.30;;;;;;5063734;28;20174;-74
2022/01/22 01:58:29;;;;;;;4.30;0.82;;;29.50;90.30;;;;;;5056956;28;20020;-74
2022/01/22 02:01:03;;;;;;;1.05;0.22;;;29.60;89.90;;;;;;5064610;28;20468;-76
2022/01/22 02:03:31;;;;;;;0.38;0.15;;;29.80;89.10;;;;;;5059313;28;20137;-77
2022/01/22 02:05:58;;;;;;;3.05;0.32;;;29.90;88.00;;;;;;5065689;28;20044;-75
2022/01/22 02:08:27;;;;;;;1.17;0.30;;;29.90;87.20;;;;;;5065464;28;20032;-75
2022/01/22 02:10:59;;;;;;;3.25;0.30;;;29.90;88.00;;;;;;5052962;28;20071;-77
2022/01/22 02:24:51;;;;;;;0.90;0.10;;;30.20;86.00;;;;;;5065112;28;20024;-77
2022/01/22 02:27:19;;;;;;;2.05;0.25;;;30.50;85.20;;;;;;5059035;28;20035;-77
2022/01/22 02:29:47;;;;;;;1.27;0.30;;;30.20;85.10;;;;;;5060818;28;20028;-76
2022/01/22 02:35:24;;;;;;;3.38;0.17;;;30.40;87.50;;;;;;5061855;28;20040;-78
2022/01/22 02:37:58;;;;;;;1.80;0.40;;;30.10;85.70;;;;;;5063691;28;20546;-77
2022/01/22 02:40:42;;;;;;;4.55;0.40;;;29.30;87.20;;;;;;5057174;28;20467;-76
2022/01/22 02:43:11;;;;;;;1.02;0.20;;;29.60;87.40;;;;;;5057554;28;20449;-75
2022/01/22 02:45:42;;;;;;;2.15;0.30;;;30.10;86.40;;;;;;5075081;28;20035;-76
2022/01/22 02:48:11;;;;;;;2.08;0.93;;;30.60;86.30;;;;;;5061684;28;20029;-76
2022/01/22 02:50:39;;;;;;;1.48;0.40;;;30.70;84.80;;;;;;5071337;28;20024;-76
2022/01/22 02:53:09;;;;;;;2.35;0.40;;;30.90;84.70;;;;;;5068345;28;20428;-77
2022/01/22 02:55:37;;;;;;;1.83;0.82;;;31.20;84.10;;;;;;5058252;28;20029;-76
2022/01/22 02:58:05;;;;;;;0.50;0.20;;;31.30;84.20;;;;;;5058859;28;20147;-75
2022/01/22 03:00:33;;;;;;;1.48;0.28;;;31.40;82.90;;;;;;5052740;28;20029;-77
2022/01/22 03:03:00;;;;;;;1.25;0.25;;;30.70;82.50;;;;;;5051337;28;20047;-76
2022/01/22 03:05:28;;;;;;;4.28;0.85;;;30.00;84.50;;;;;;5051837;28;20502;-76
2022/01/22 03:07:57;;;;;;;1.50;0.20;;;29.40;86.20;;;;;;5061730;28;20017;-76
2022/01/22 03:10:26;;;;;;;1.23;0.30;;;29.20;85.00;;;;;;5060361;28;20410;-76
2022/01/22 03:14:20;;;;;;;4.13;0.30;;;29.20;85.80;;;;;;5050538;28;20068;-81
2022/01/22 03:21:34;;;;;;;0.38;0.10;;;29.60;85.50;;;;;;5058738;28;20029;-75
2022/01/22 03:29:38;;;;;;;1.63;0.20;;;30.90;82.20;;;;;;5059444;28;20498;-75
2022/01/22 03:32:07;;;;;;;0.98;0.10;;;31.20;80.80;;;;;;5067582;28;20048;-75
2022/01/22 03:34:44;;;;;;;2.13;0.25;;;31.20;82.40;;;;;;5068096;28;20070;-75
2022/01/22 03:37:11;;;;;;;2.58;0.52;;;31.40;81.00;;;;;;5063450;28;20040;-75
2022/01/22 03:39:39;;;;;;;1.00;0.20;;;31.50;81.30;;;;;;5075435;28;20020;-74
2022/01/22 03:42:06;;;;;;;2.97;0.30;;;31.50;81.50;;;;;;5069525;28;20051;-76
2022/01/22 03:44:34;;;;;;;1.52;0.40;;;31.60;80.50;;;;;;5068739;28;20035;-75
2022/01/22 03:47:01;;;;;;;5.13;0.85;;;31.10;81.00;;;;;;5066730;28;20082;-77
2022/01/22 03:49:28;;;;;;;1.65;0.25;;;31.00;79.90;;;;;;5059496;28;20468;-77
2022/01/22 03:51:56;;;;;;;1.90;0.20;;;31.10;80.90;;;;;;5065104;28;20036;-77
2022/01/22 03:54:23;;;;;;;0.88;0.10;;;31.30;79.40;;;;;;5069229;28;20032;-76
2022/01/22 03:56:52;;;;;;;2.33;0.30;;;31.20;80.60;;;;;;5069185;28;20029;-74
2022/01/22 03:59:19;;;;;;;0.55;0.15;;;31.00;82.20;;;;;;5060369;28;20032;-77
2022/01/22 04:04:37;;;;;;;2.50;0.40;;;31.00;83.70;;;;;;5067203;28;20055;-78
2022/01/22 04:09:44;;;;;;;1.30;0.60;;;30.90;82.30;;;;;;5057122;28;20025;-76
2022/01/22 04:12:20;;;;;;;1.05;0.30;;;30.60;84.20;;;;;;5065023;28;20044;-75
2022/01/22 04:14:55;;;;;;;2.05;0.20;;;30.30;82.90;;;;;;5057618;28;20021;-75
2022/01/22 04:25:37;;;;;;;;;;;30.10;83.20;;;;;;5051335;28;20028;-76
2022/01/22 04:28:04;;;;;;;1.88;0.30;;;30.40;81.80;;;;;;5059481;28;19913;-76
2022/01/22 04:30:32;;;;;;;0.45;0.20;;;30.10;82.60;;;;;;5064613;28;20048;-77
2022/01/22 04:33:04;;;;;;;2.35;0.20;;;29.40;82.20;;;;;;5060518;28;20035;-74
2022/01/22 04:35:32;;;;;;;2.00;0.30;;;29.50;83.90;;;;;;5066902;28;20029;-76
2022/01/22 04:38:00;;;;;;;1.45;0.22;;;29.60;83.00;;;;;;5060207;28;20021;-75
2022/01/22 04:40:27;;;;;;;1.30;0.15;;;29.80;83.70;;;;;;5055787;28;20072;-77
2022/01/22 04:42:55;;;;;;;0.98;0.20;;;30.00;82.60;;;;;;5064985;28;20024;-75
2022/01/22 04:56:09;;;;;;;1.50;0.20;;;28.70;84.20;;;;;;5047741;28;20036;-75
2022/01/22 04:58:36;;;;;;;0.95;0.30;;;28.60;84.90;;;;;;5053082;28;20029;-76
2022/01/22 05:01:04;;;;;;;3.25;0.30;;;29.00;84.70;;;;;;5061634;28;20032;-75
2022/01/22 05:03:31;;;;;;;3.08;0.43;;;29.40;85.20;;;;;;5056325;28;20037;-76
2022/01/22 05:06:00;;;;;;;1.52;0.20;;;29.60;84.90;;;;;;5054418;28;20040;-74
2022/01/22 05:08:28;;;;;;;2.35;0.40;;;29.70;83.30;;;;;;5067087;28;20111;-79
2022/01/22 05:10:55;;;;;;;2.42;0.30;;;29.60;83.60;;;;;;5056205;28;20021;-76
2022/01/22 05:13:22;;;;;;;1.50;0.15;;;29.60;83.30;;;;;;5063086;28;20025;-75
2022/01/22 05:15:50;;;;;;;1.10;0.20;;;29.70;84.10;;;;;;5058973;28;20021;-75
2022/01/22 05:18:17;;;;;;;1.88;0.20;;;29.20;83.70;;;;;;5055143;28;20033;-77
2022/01/22 05:20:55;;;;;;;1.80;0.43;;;28.70;84.50;;;;;;5049161;28;20025;-76
2022/01/22 05:23:25;;;;;;;2.28;0.30;;;28.70;85.20;;;;;;5056187;28;20127;-75
2022/01/22 05:25:59;;;;;;;0.70;0.15;;;29.00;84.80;;;;;;5060917;28;20047;-75
2022/01/22 05:31:19;;;;;;;1.45;0.30;;;29.00;83.70;;;;;;5068157;28;20258;-77
2022/01/22 05:39:18;;;;;;;3.65;0.20;;;28.50;85.00;;;;;;5054561;28;20040;-76
2022/01/22 05:41:45;;;;;;;3.13;0.30;;;29.00;84.40;;;;;;5053175;28;20055;-77
2022/01/22 05:44:13;;;;;;;2.72;0.50;;;28.80;83.20;;;;;;5058604;28;20502;-75
2022/01/22 05:46:40;;;;;;;1.67;0.38;;;28.70;84.30;;;;;;5058151;28;20036;-76
2022/01/22 05:49:07;;;;;;;3.40;0.28;;;28.80;84.00;;;;;;5062232;28;20037;-75
2022/01/22 05:51:38;;;;;;;1.40;0.25;;;28.70;85.10;;;;;;5058387;28;20097;-76
2022/01/22 05:59:40;;;;;;;4.10;0.40;;;28.40;84.80;;;;;;5058147;28;20028;-77
2022/01/22 06:02:15;;;;;;;3.38;0.43;;;28.30;87.00;;;;;;5058183;28;20048;-78
2022/01/22 06:04:44;;;;;;;1.33;0.30;;;28.30;84.30;;;;;;5066287;28;20406;-75
2022/01/22 06:07:13;;;;;;;2.55;0.20;;;28.30;84.50;;;;;;5056785;28;20411;-76
2022/01/22 06:10:42;;;;;;;1.58;0.30;;;28.20;84.10;;;;;;5066660;28;20031;-76
2022/01/22 06:12:46;;;;;;;2.17;0.30;;;28.10;85.10;;;;;;5050336;28;20098;-75
2022/01/22 06:15:14;;;;;;;2.93;0.40;;;28.10;84.50;;;;;;5059021;28;20058;-76
2022/01/22 06:17:41;;;;;;;3.53;0.50;;;28.20;85.30;;;;;;5060530;28;20640;-75
2022/01/22 06:20:12;;;;;;;1.70;0.22;;;28.40;84.50;;;;;;5053472;28;20029;-76
2022/01/22 06:22:41;;;;;;;3.38;0.60;;;28.40;85.20;;;;;;5063267;28;20037;-77
2022/01/22 06:25:09;;;;;;;1.33;0.40;;;28.40;84.90;;;;;;5069617;28;20056;-76
2022/01/22 06:27:37;;;;;;;3.58;0.40;;;28.40;83.00;;;;;;5065912;28;20387;-76
2022/01/22 06:30:05;;;;;;;1.38;0.20;;;28.40;84.20;;;;;;5052342;28;20550;-77
2022/01/22 06:32:32;;;;;;;1.50;0.30;;;28.40;83.20;;;;;;5064769;28;20035;-76
2022/01/22 06:35:00;;;;;;;0.80;0.10;;;28.10;83.30;;;;;;5070865;28;20029;-77
2022/01/22 06:37:27;;;;;;;2.03;0.20;;;27.60;83.70;;;;;;5059788;28;20029;-77
2022/01/22 06:42:35;;;;;;;2.05;0.22;;;27.40;85.10;;;;;;5064972;28;20025;-77
2022/01/22 06:45:05;;;;;;;4.18;0.68;;;27.40;85.10;;;;;;5059888;28;20032;-77
2022/01/22 06:47:32;;;;;;;4.05;0.20;;;27.40;84.70;;;;;;5064798;28;20043;-75
2022/01/22 06:50:00;;;;;;;2.15;0.30;;;27.20;85.20;;;;;;5071231;28;20082;-77
2022/01/22 06:52:29;;;;;;;5.47;0.73;;;27.20;84.90;;;;;;5061024;28;20035;-76
2022/01/22 06:54:56;;;;;;;0.98;0.40;;;27.20;84.70;;;;;;5053746;28;20052;-77
2022/01/22 06:57:23;;;;;;;1.98;0.47;;;27.10;83.50;;;;;;5066971;28;20033;-74
2022/01/22 06:59:51;;;;;;;2.22;0.15;;;27.10;82.40;;;;;;5064631;28;20059;-77
2022/01/22 07:02:19;;;;;;;2.58;0.40;;;27.00;82.70;;;;;;5067832;28;20056;-77
2022/01/22 07:04:46;;;;;;;2.95;0.52;;;27.00;83.20;;;;;;5065530;28;20059;-78
2022/01/22 07:07:14;;;;;;;1.25;0.20;;;27.00;83.70;;;;;;5051922;28;20076;-76
2022/01/22 07:09:41;;;;;;;2.67;1.52;;;27.00;83.90;;;;;;5057264;28;20574;-74
2022/01/22 07:12:12;;;;;;;2.35;0.30;;;27.10;84.10;;;;;;5052809;28;20179;-76
2022/01/22 07:14:39;;;;;;;1.67;0.50;;;27.00;84.90;;;;;;5055443;28;20475;-76
2022/01/22 07:17:07;;;;;;;0.85;0.25;;;26.80;85.30;;;;;;5052843;28;20028;-76
2022/01/22 07:19:40;;;;;;;1.38;0.40;;;26.70;85.10;;;;;;5057482;28;20045;-76
2022/01/22 07:24:52;;;;;;;;;;;26.50;86.20;;;;;;5065580;28;20117;-76
2022/01/22 07:27:20;;;;;;;1.58;0.30;;;26.50;86.10;;;;;;5053491;28;19908;-75
2022/01/22 07:29:49;;;;;;;1.85;0.38;;;26.40;86.70;;;;;;5054888;28;20035;-75
2022/01/22 07:32:27;;;;;;;4.70;0.40;;;26.20;86.30;;;;;;5053491;28;20404;-75
2022/01/22 07:34:54;;;;;;;0.60;0.35;;;26.20;87.20;;;;;;5065196;28;20027;-75
2022/01/22 07:37:22;;;;;;;2.13;0.50;;;26.10;87.90;;;;;;5059530;28;20028;-75
2022/01/22 07:39:50;;;;;;;3.72;0.95;;;26.10;87.20;;;;;;5056384;28;20100;-75
2022/01/22 07:42:17;;;;;;;0.93;0.40;;;26.00;88.00;;;;;;5058128;28;20032;-76
2022/01/22 07:44:45;;;;;;;1.95;0.30;;;25.80;88.00;;;;;;5051638;28;20025;-74
2022/01/22 07:47:12;;;;;;;1.75;0.30;;;25.80;88.40;;;;;;5059950;28;20078;-76
2022/01/22 07:49:40;;;;;;;2.65;0.75;;;25.70;88.70;;;;;;5066983;28;20060;-77
2022/01/22 07:52:08;;;;;;;2.58;0.60;;;25.60;89.70;;;;;;5053095;28;20086;-75
2022/01/22 07:54:36;;;;;;;3.38;0.52;;;25.50;90.00;;;;;;5054839;28;20028;-77
2022/01/22 07:57:04;;;;;;;1.95;0.93;;;25.50;90.10;;;;;;5065059;28;20540;-76
2022/01/22 07:59:33;;;;;;;3.08;0.40;;;25.40;90.30;;;;;;5062266;28;20087;-77
2022/01/22 08:02:02;;;;;;;4.03;0.40;;;25.20;90.80;;;;;;5066721;28;20044;-76
2022/01/22 08:04:30;;;;;;;1.92;0.45;;;25.20;90.60;;;;;;5061731;28;20037;-75
2022/01/22 08:06:59;;;;;;;4.43;0.32;;;25.20;90.50;;;;;;5067668;28;20082;-79
2022/01/22 08:09:28;;;;;;;3.35;0.30;;;25.00;90.80;;;;;;5062811;28;20024;-76
2022/01/22 08:11:56;;;;;;;1.17;0.30;;;25.00;90.90;;;;;;5051725;28;20075;-75
2022/01/22 08:14:23;;;;;;;7.60;0.60;;;25.00;91.00;;;;;;5053587;28;20116;-77
2022/01/22 08:16:50;;;;;;;2.33;0.55;;;24.90;91.00;;;;;;5053576;28;20032;-80
2022/01/22 08:19:18;;;;;;;1.98;0.40;;;24.80;91.20;;;;;;5056007;28;20304;-76
2022/01/22 08:21:47;;;;;;;3.65;0.40;;;24.70;91.40;;;;;;5055278;28;20452;-76
2022/01/22 08:24:17;;;;;;;3.80;0.73;;;24.70;91.50;;;;;;5050889;28;20036;-76
2022/01/22 08:26:52;;;;;;;2.40;0.77;;;24.60;91.70;;;;;;5052410;28;20382;-76
2022/01/22 08:29:19;;;;;;;3.42;0.43;;;24.50;91.50;;;;;;5050622;28;20031;-76
2022/01/22 08:31:52;;;;;;;2.08;0.50;;;24.30;91.50;;;;;;5052428;28;20411;-75
2022/01/22 08:37:05;;;;;;;2.85;1.10;;;24.10;91.70;;;;;;5050467;28;20059;-76
2022/01/22 08:39:32;;;;;;;2.97;1.95;;;24.00;91.90;;;;;;5052113;28;20135;-76
2022/01/22 08:41:59;;;;;;;1.40;0.47;;;24.00;91.80;;;;;;5054560;28;20044;-75
2022/01/22 08:44:27;;;;;;;2.75;0.40;;;23.90;92.00;;;;;;5057340;28;20168;-75
2022/01/22 08:46:57;;;;;;;1.23;0.50;;;23.80;92.20;;;;;;5053221;28;20053;-75
2022/01/22 08:49:25;;;;;;;2.30;0.93;;;23.70;92.40;;;;;;5053589;28;20020;-75
2022/01/22 08:51:54;;;;;;;4.10;0.68;;;23.50;92.70;;;;;;5053612;28;20062;-74
2022/01/22 08:54:21;;;;;;;3.25;0.80;;;23.40;93.10;;;;;;5048545;28;20078;-76
2022/01/22 08:56:48;;;;;;;3.25;0.80;;;23.30;93.30;;;;;;5060194;28;20035;-74
2022/01/22 08:59:16;;;;;;;3.08;0.57;;;23.20;93.50;;;;;;5059948;28;20047;-76
2022/01/22 09:01:48;;;;;;;5.88;1.20;;;23.10;93.70;;;;;;5061493;28;20040;-77
2022/01/22 09:04:16;;;;;;;1.40;0.40;;;23.10;94.10;;;;;;5055637;28;20031;-76
2022/01/22 09:06:44;;;;;;;4.63;0.90;;;23.00;94.20;;;;;;5050980;28;20482;-77
2022/01/22 09:09:12;;;;;;;2.20;0.43;;;22.90;94.50;;;;;;5054102;28;22199;-76
2022/01/22 09:11:42;;;;;;;3.75;0.73;;;22.80;94.70;;;;;;5054506;28;20119;-74
2022/01/22 09:14:12;;;;;;;3.05;0.70;;;22.70;95.10;;;;;;5058132;28;20359;-76
2022/01/22 09:16:40;;;;;;;6.88;1.27;;;22.60;95.50;;;;;;5054517;28;20033;-76
2022/01/22 09:19:11;;;;;;;4.28;1.20;;;22.60;95.40;;;;;;5051875;28;20446;-77
2022/01/22 09:21:47;;;;;;;5.57;2.13;;;22.60;95.50;;;;;;5065056;28;20381;-75
2022/01/22 09:24:16;;;;;;;2.67;0.77;;;22.60;95.60;;;;;;5059004;28;20077;-76
2022/01/22 09:26:44;;;;;;;3.80;0.60;;;22.60;95.80;;;;;;5055982;28;20020;-75
2022/01/22 09:29:12;;;;;;;3.50;1.08;;;22.50;96.40;;;;;;5061041;28;20036;-77
2022/01/22 09:31:39;;;;;;;3.17;1.23;;;22.50;96.30;;;;;;5061122;28;20546;-74
2022/01/22 09:34:07;;;;;;;5.28;0.73;;;22.50;96.30;;;;;;5058735;28;20045;-76
2022/01/22 09:36:35;;;;;;;3.38;0.50;;;22.40;96.60;;;;;;5056740;28;20031;-76
2022/01/22 09:39:05;;;;;;;2.70;0.40;;;22.50;96.80;;;;;;5054493;28;20511;-75
2022/01/22 09:41:33;;;;;;;4.45;0.55;;;22.40;97.20;;;;;;5055326;28;20562;-78
2022/01/22 09:44:01;;;;;;;2.20;0.70;;;22.30;97.00;;;;;;5051513;28;20169;-78
2022/01/22 09:46:29;;;;;;;2.67;0.63;;;22.40;97.20;;;;;;5054747;28;20023;-77
2022/01/22 09:48:57;;;;;;;6.05;0.85;;;22.40;97.50;;;;;;5055872;28;20552;-80
2022/01/22 09:51:25;;;;;;;4.20;0.80;;;22.50;97.90;;;;;;5052039;28;20484;-78
2022/01/22 09:53:53;;;;;;;6.43;0.93;;;22.50;97.90;;;;;;5056063;28;20188;-76
2022/01/22 09:56:24;;;;;;;4.90;0.93;;;22.50;98.20;;;;;;5053362;28;20508;-76
2022/01/22 09:58:52;;;;;;;8.05;0.70;;;22.60;98.20;;;;;;5053504;28;20194;-76
2022/01/22 10:01:26;;;;;;;7.75;0.60;;;22.70;98.00;;;;;;5055866;28;20123;-75
2022/01/22 10:03:57;;;;;;;5.80;1.13;;;22.90;98.30;;;;;;5073155;28;20068;-75
2022/01/22 10:06:27;;;;;;;4.30;0.88;;;22.90;98.10;;;;;;5062109;28;20024;-76
2022/01/22 10:09:15;;;;;;;5.32;0.90;;;23.00;98.20;;;;;;5056731;28;20060;-74
2022/01/22 10:11:43;;;;;;;6.07;0.85;;;23.00;98.10;;;;;;5054403;28;20367;-74
2022/01/22 10:14:10;;;;;;;2.83;0.63;;;22.90;98.40;;;;;;5057456;28;20025;-75
2022/01/22 10:16:47;;;;;;;6.40;1.08;;;22.90;98.50;;;;;;5055408;28;20029;-74
2022/01/22 10:19:20;;;;;;;4.75;1.25;;;22.90;98.60;;;;;;5056706;28;20035;-74
2022/01/22 10:21:55;;;;;;;2.47;0.80;;;22.90;98.70;;;;;;5052672;28;20021;-75
2022/01/22 10:24:46;;;;;;;10.55;2.05;;;22.90;98.90;;;;;;5058324;28;20113;-75
2022/01/22 10:30:16;;;;;;;5.22;0.90;;;22.80;99.30;;;;;;5051695;28;20033;-74
2022/01/22 10:35:23;;;;;;;2.55;0.63;;;22.70;99.60;;;;;;5054590;28;20356;-75
2022/01/22 10:38:03;;;;;;;2.60;0.50;;;22.60;99.70;;;;;;5050175;28;20020;-75
2022/01/22 10:40:32;;;;;;;3.47;0.60;;;22.50;99.90;;;;;;5056652;28;20068;-77
2022/01/22 10:43:30;;;;;;;3.35;0.90;;;22.40;99.90;;;;;;5058720;28;20102;-76
2022/01/22 10:49:07;;;;;;;1.25;0.98;;;22.40;99.90;;;;;;5066078;28;20486;-74
2022/01/22 10:51:56;;;;;;;3.92;0.82;;;22.30;99.90;;;;;;5056257;28;20083;-76
2022/01/22 10:54:32;;;;;;;3.45;0.70;;;22.40;99.90;;;;;;5055378;28;20036;-75
2022/01/22 10:57:20;;;;;;;9.60;1.15;;;22.40;99.90;;;;;;5057210;28;20032;-73
2022/01/22 10:59:49;;;;;;;6.68;1.00;;;22.30;99.90;;;;;;5055859;28;20039;-75
2022/01/22 11:02:18;;;;;;;2.92;0.40;;;22.20;99.90;;;;;;5054330;28;20037;-74
2022/01/22 11:04:46;;;;;;;3.55;0.90;;;22.10;99.90;;;;;;5057960;28;20150;-75
2022/01/22 11:07:19;;;;;;;4.68;0.90;;;22.10;99.90;;;;;;5051837;28;20025;-76
2022/01/22 11:09:47;;;;;;;7.53;1.10;;;22.10;99.90;;;;;;5051780;28;20029;-75
2022/01/22 11:12:16;;;;;;;4.43;0.75;;;22.00;99.90;;;;;;5057928;28;20029;-75
2022/01/22 11:14:45;;;;;;;4.45;1.55;;;21.90;99.90;;;;;;5056790;28;20037;-75
2022/01/22 11:17:13;;;;;;;5.85;1.20;;;21.80;99.90;;;;;;5061135;28;20021;-73
2022/01/22 11:19:43;;;;;;;5.85;1.70;;;21.80;99.90;;;;;;5061360;28;20472;-75
2022/01/22 11:22:13;;;;;;;4.45;1.27;;;21.70;99.90;;;;;;5057346;28;20083;-75
2022/01/22 11:24:42;;;;;;;6.38;1.67;;;21.70;99.90;;;;;;5057661;28;20025;-76
2022/01/22 11:27:13;;;;;;;6.15;1.45;;;21.70;99.90;;;;;;5060097;28;20112;-75
2022/01/22 11:29:49;;;;;;;5.90;1.23;;;21.60;99.90;;;;;;5056543;28;20029;-75
2022/01/22 11:32:21;;;;;;;3.95;0.70;;;21.60;99.90;;;;;;5054101;28;20394;-75
2022/01/22 11:34:50;;;;;;;6.88;0.82;;;21.60;99.90;;;;;;5053470;28;20025;-73
2022/01/22 11:37:28;;;;;;;3.92;0.63;;;21.50;99.90;;;;;;5065189;28;20108;-76
2022/01/22 11:40:19;;;;;;;4.85;0.80;;;21.60;99.90;;;;;;5060696;28;20112;-75
2022/01/22 11:43:00;;;;;;;9.10;1.02;;;21.50;99.90;;;;;;5062188;28;20580;-75
2022/01/22 11:45:39;;;;;;;3.92;0.80;;;21.50;99.90;;;;;;5065540;28;20375;-74
2022/01/22 11:48:10;;;;;;;2.95;0.93;;;21.50;99.90;;;;;;5065668;28;20039;-76
2022/01/22 11:50:39;;;;;;;2.50;0.60;;;21.50;99.90;;;;;;5064536;28;20506;-75
2022/01/22 11:53:37;;;;;;;0.88;0.30;;;21.50;99.90;;;;;;5061818;28;20029;-75
2022/01/22 11:56:13;;;;;;;1.13;0.50;;;21.40;99.90;;;;;;5060754;28;20028;-76
2022/01/22 11:58:59;;;;;;;2.47;0.40;;;21.40;99.90;;;;;;5057733;28;20025;-75
2022/01/22 12:01:39;;;;;;;3.20;0.50;;;21.30;99.90;;;;;;5055558;28;20043;-75
2022/01/22 12:04:08;;;;;;;5.25;0.57;;;21.30;99.90;;;;;;5055279;28;20036;-75
2022/01/22 12:06:37;;;;;;;1.10;0.73;;;21.30;99.90;;;;;;5055663;28;20105;-75
2022/01/22 12:09:25;;;;;;;2.80;0.73;;;21.30;99.90;;;;;;5056779;28;20032;-76
2022/01/22 12:14:49;;;;;;;1.25;0.40;;;21.40;99.90;;;;;;5063036;28;20092;-75
2022/01/22 12:17:40;;;;;;;5.07;0.90;;;21.50;99.90;;;;;;5060895;28;20028;-76
2022/01/22 12:20:39;;;;;;;2.97;0.80;;;21.40;99.90;;;;;;5056639;28;20040;-75
2022/01/22 12:23:13;;;;;;;2.00;0.82;;;21.40;99.90;;;;;;5064915;28;20482;-76
2022/01/22 12:25:40;;;;;;;3.15;0.75;;;21.40;99.90;;;;;;5062002;28;20064;-77
2022/01/22 12:28:09;;;;;;;3.95;0.60;;;21.40;99.90;;;;;;5054350;28;20064;-76
2022/01/22 12:30:50;;;;;;;2.47;0.77;;;21.40;99.90;;;;;;5065412;28;20086;-75
2022/01/22 12:33:43;;;;;;;7.25;1.08;;;21.30;99.90;;;;;;5055187;28;20118;-75
2022/01/22 12:36:18;;;;;;;4.38;0.52;;;21.30;99.90;;;;;;5056433;28;20111;-75
2022/01/22 12:38:57;;;;;;;6.53;0.77;;;21.30;99.90;;;;;;5065034;28;20521;-76
2022/01/22 12:44:08;;;;;;;2.15;0.47;;;21.30;99.90;;;;;;5062587;28;20098;-75
2022/01/22 12:46:36;;;;;;;6.53;1.20;;;21.30;99.90;;;;;;5067187;28;20017;-75
2022/01/22 12:49:05;;;;;;;3.97;0.75;;;21.30;99.90;;;;;;5066164;28;20101;-76
2022/01/22 12:51:34;;;;;;;6.28;0.80;;;21.30;99.90;;;;;;5060553;28;20052;-74
2022/01/22 12:54:02;;;;;;;2.10;0.55;;;21.30;99.90;;;;;;5062518;28;20029;-76
2022/01/22 12:59:05;;;;;;;6.00;0.98;;;21.20;99.90;;;;;;5064074;28;20383;-74
2022/01/22 13:01:34;;;;;;;2.92;0.80;;;21.20;99.90;;;;;;5062042;28;20044;-74
2022/01/22 13:04:06;;;;;;;3.35;0.75;;;21.20;99.90;;;;;;5062696;28;20060;-74
2022/01/22 13:06:50;;;;;;;1.83;0.60;;;21.20;99.90;;;;;;5061016;28;20040;-73
2022/01/22 13:09:18;;;;;;;4.55;0.70;;;21.20;99.90;;;;;;5055501;28;20036;-74
2022/01/22 13:11:50;;;;;;;3.42;0.47;;;21.20;99.90;;;;;;5062796;28;20029;-74
2022/01/22 13:14:26;;;;;;;4.82;1.45;;;21.20;99.90;;;;;;5060558;28;20113;-74
2022/01/22 13:16:55;;;;;;;4.60;0.65;;;21.20;99.90;;;;;;5052992;28;20031;-74
2022/01/22 13:19:24;;;;;;;6.35;1.17;;;21.20;99.90;;;;;;5062037;28;20054;-74
2022/01/22 13:22:01;;;;;;;5.30;1.23;;;21.20;99.90;;;;;;5070240;28;20032;-74
2022/01/22 13:24:29;;;;;;;1.60;0.77;;;21.20;99.90;;;;;;5069273;28;20056;-75
2022/01/22 13:27:10;;;;;;;4.05;0.95;;;21.10;99.90;;;;;;5062217;28;20075;-74
2022/01/22 13:29:43;;;;;;;2.92;1.02;;;21.10;99.90;;;;;;5066694;28;20036;-75
2022/01/22 13:41:04;;;;;;;3.10;0.73;;;21.00;99.90;;;;;;5064648;28;20064;-75
2022/01/22 13:49:16;;;;;;;2.40;0.70;;;20.80;99.90;;;;;;5065692;28;20399;-73
2022/01/22 13:51:44;;;;;;;2.30;0.98;;;20.70;99.90;;;;;;5064285;28;20111;-73
2022/01/22 13:54:12;;;;;;;2.67;0.70;;;20.60;99.90;;;;;;5061727;28;20159;-74
2022/01/22 13:56:52;;;;;;;5.63;0.73;;;20.50;99.90;;;;;;5060065;28;20029;-74
2022/01/22 13:59:29;;;;;;;4.30;1.80;;;20.40;99.90;;;;;;5069328;28;20509;-73
2022/01/22 14:04:51;;;;;;;3.83;1.02;;;20.20;99.90;;;;;;5053188;28;20107;-74
2022/01/22 14:07:33;;;;;;;2.75;0.95;;;20.10;99.90;;;;;;5058023;28;20053;-75
2022/01/22 14:10:05;;;;;;;3.15;0.77;;;20.10;99.90;;;;;;5064846;28;20036;-75
2022/01/22 14:12:42;;;;;;;2.42;0.70;;;20.00;99.90;;;;;;5060970;28;20032;-76
2022/01/22 14:15:22;;;;;;;4.07;0.85;;;20.00;99.90;;;;;;5055916;28;20040;-76
2022/01/22 14:18:22;;;;;;;5.80;1.38;;;19.90;99.90;;;;;;5056649;28;20028;-76
2022/01/22 14:20:54;;;;;;;6.53;1.10;;;19.90;99.90;;;;;;5064495;28;20024;-76
2022/01/22 14:23:24;;;;;;;4.45;0.63;;;19.80;99.90;;;;;;5061258;28;20045;-74
2022/01/22 14:26:10;;;;;;;3.50;1.02;;;19.70;99.90;;;;;;5071209;28;20028;-76
2022/01/22 14:28:45;;;;;;;5.00;1.05;;;19.60;99.90;;;;;;5064046;28;20051;-74
2022/01/22 14:31:24;;;;;;;7.28;1.55;;;19.60;99.90;;;;;;5069029;28;20520;-75
2022/01/22 14:33:52;;;;;;;3.35;0.80;;;19.50;99.90;;;;;;5053509;28;20048;-75
2022/01/22 14:36:26;;;;;;;4.75;1.00;;;19.50;99.90;;;;;;5063654;28;20029;-75
2022/01/22 14:43:57;;;;;;;3.60;0.70;;;19.50;99.90;;;;;;5073191;28;20028;-75
2022/01/22 14:44:53;;;;;;;8.02;1.98;;;19.40;99.90;;;;;;5077181;28;20081;-76
2022/01/22 14:47:23;;;;;;;4.70;0.80;;;19.50;99.90;;;;;;5078667;28;20119;-76
2022/01/22 14:49:51;;;;;;;7.18;1.85;;;19.50;99.90;;;;;;5062817;28;20089;-75
2022/01/22 14:52:26;;;;;;;4.72;0.93;;;19.50;99.90;;;;;;5061528;28;20028;-74
2022/01/22 14:54:58;;;;;;;2.70;1.02;;;19.50;99.90;;;;;;5061919;28;20033;-75
2022/01/22 14:57:31;;;;;;;6.85;1.23;;;19.50;99.90;;;;;;5057657;28;20033;-76
2022/01/22 15:00:06;;;;;;;10.18;1.40;;;19.50;99.90;;;;;;5055082;28;20029;-76
2022/01/22 15:02:34;;;;;;;7.25;0.88;;;19.50;99.90;;;;;;5060844;28;20041;-75
2022/01/22 15:05:03;;;;;;;5.00;1.50;;;19.60;99.90;;;;;;5052396;28;20036;-76
2022/01/22 15:07:30;;;;;;;3.65;1.35;;;19.60;99.90;;;;;;5058931;28;20044;-75
2022/01/22 15:09:57;;;;;;;4.85;1.10;;;19.60;99.90;;;;;;5056118;28;20167;-76
2022/01/22 15:12:25;;;;;;;5.82;1.13;;;19.70;99.90;;;;;;5061705;28;20093;-75
2022/01/22 15:14:53;;;;;;;3.15;1.00;;;19.70;99.90;;;;;;5066692;28;20111;-75